createdAt,value
2023-02-09T00:04:27.544Z,100.00
2023-02-09T00:09:33.550Z,100.00
2023-02-09T00:14:37.990Z,100.00
2023-02-09T00:19:42.535Z,100.00
2023-02-09T00:24:48.360Z,100.00
2023-02-09T00:29:53.259Z,100.00
2023-02-09T00:34:57.882Z,100.00
2023-02-09T00:40:04.062Z,100.00
2023-02-09T00:45:09.649Z,100.00
2023-02-09T00:50:13.744Z,100.00
2023-02-09T00:55:20.133Z,100.00
2023-02-09T01:00:24.934Z,100.00
2023-02-09T01:05:29.514Z,100.00
2023-02-09T01:10:35.444Z,100.00
2023-02-09T01:15:41.111Z,100.00
2023-02-09T01:20:46.966Z,100.00
2023-02-09T01:26:02.042Z,100.00
2023-02-09T01:31:07.950Z,100.00
2023-02-09T01:36:12.772Z,100.00
2023-02-09T01:41:18.916Z,100.00
2023-02-09T01:46:24.484Z,100.00
2023-02-09T01:51:29.144Z,100.00
2023-02-09T01:56:38.384Z,100.00
2023-02-09T02:01:44.400Z,100.00
2023-02-09T02:06:49.747Z,100.00
2023-02-09T02:11:56.432Z,100.00
2023-02-09T02:17:12.796Z,100.00
2023-02-09T02:22:45.795Z,100.00
2023-02-09T02:28:07.368Z,100.00
2023-02-09T02:33:33.797Z,100.00
2023-02-09T02:38:44.466Z,100.00
2023-02-09T02:43:57.283Z,100.00
2023-02-09T02:49:09.889Z,100.00
2023-02-09T02:54:18.212Z,100.00
2023-02-09T02:59:26.168Z,100.00
2023-02-09T03:04:34.432Z,100.00
2023-02-09T03:09:38.896Z,100.00
2023-02-09T03:14:49.489Z,100.00
2023-02-09T03:20:04.452Z,100.00
2023-02-09T03:25:13.953Z,100.00
2023-02-09T03:30:19.497Z,100.00
2023-02-09T03:35:27.263Z,100.00
2023-02-09T03:40:31.675Z,100.00
2023-02-09T03:45:36.121Z,100.00
2023-02-09T03:50:42.384Z,100.00
2023-02-09T03:55:47.396Z,100.00
2023-02-09T04:00:51.852Z,100.00
2023-02-09T04:05:57.777Z,100.00
2023-02-09T04:11:02.159Z,100.00
2023-02-09T04:16:07.376Z,100.00
2023-02-09T04:21:13.319Z,100.00
2023-02-09T04:26:18.046Z,100.00
2023-02-09T04:31:22.628Z,100.00
2023-02-09T04:36:28.649Z,100.00
2023-02-09T04:41:32.996Z,100.00
2023-02-09T04:46:37.325Z,100.00
2023-02-09T04:51:43.484Z,100.00
2023-02-09T04:56:47.875Z,100.00
2023-02-09T05:01:52.641Z,100.00
2023-02-09T05:07:00.678Z,100.00
2023-02-09T05:12:05.592Z,100.00
2023-02-09T05:17:10.153Z,100.00
2023-02-09T05:22:16.085Z,100.00
2023-02-09T05:27:20.734Z,100.00
2023-02-09T05:32:25.055Z,100.00
2023-02-09T05:37:30.914Z,100.00
2023-02-09T05:42:35.558Z,100.00
2023-02-09T05:47:39.990Z,100.00
2023-02-09T05:52:46.604Z,100.00
2023-02-09T05:57:51.013Z,100.00
2023-02-09T06:02:56.029Z,100.00
2023-02-09T06:08:02.148Z,100.00
2023-02-09T06:13:06.566Z,100.00
2023-02-09T06:18:11.257Z,100.00
2023-02-09T06:23:17.035Z,100.00
2023-02-09T06:28:21.731Z,100.00
2023-02-09T06:33:28.355Z,100.00
2023-02-09T06:38:38.413Z,100.00
2023-02-09T06:43:46.014Z,94.84
2023-02-09T06:48:53.751Z,92.67
2023-02-09T06:54:02.498Z,99.83
2023-02-09T06:59:08.996Z,99.37
2023-02-09T07:04:16.079Z,100.00
2023-02-09T07:09:25.071Z,98.35
2023-02-09T07:14:30.399Z,96.72
2023-02-09T07:19:34.890Z,92.55
2023-02-09T07:24:40.859Z,89.80
2023-02-09T07:29:45.786Z,87.49
2023-02-09T07:34:50.289Z,85.24
2023-02-09T07:39:56.098Z,82.85
2023-02-09T07:45:00.974Z,84.44
2023-02-09T07:50:06.438Z,83.53
2023-02-09T07:55:12.282Z,82.43
2023-02-09T08:00:18.307Z,80.95
2023-02-09T08:05:28.088Z,81.13
2023-02-09T08:10:34.206Z,84.00
2023-02-09T08:15:42.258Z,81.72
2023-02-09T08:20:47.816Z,83.60
2023-02-09T08:25:54.160Z,90.07
2023-02-09T08:30:58.758Z,87.68
2023-02-09T08:36:03.469Z,88.46
2023-02-09T08:41:12.227Z,83.87
2023-02-09T08:46:16.998Z,76.27
2023-02-09T08:51:21.705Z,81.51
2023-02-09T08:56:27.816Z,81.32
2023-02-09T09:01:32.607Z,78.43
2023-02-09T09:06:37.193Z,78.29
2023-02-09T09:11:43.064Z,83.71
2023-02-09T09:16:47.455Z,80.75
2023-02-09T09:21:51.934Z,78.27
2023-02-09T09:26:58.203Z,76.01
2023-02-09T09:32:02.688Z,80.73
2023-02-09T09:37:07.400Z,78.71
2023-02-09T09:42:24.819Z,74.69
2023-02-09T09:47:37.623Z,72.53
2023-02-09T09:52:45.210Z,70.90
2023-02-09T09:57:52.514Z,74.31
2023-02-09T10:02:56.782Z,68.41
2023-02-09T10:08:07.005Z,74.81
2023-02-09T10:13:20.862Z,73.01
2023-02-09T10:18:26.450Z,76.21
2023-02-09T10:23:40.261Z,69.81
2023-02-09T10:28:48.140Z,67.65
2023-02-09T10:33:58.733Z,69.95
2023-02-09T10:39:15.205Z,69.95
2023-02-09T10:44:25.235Z,74.60
2023-02-09T10:49:32.388Z,80.32
2023-02-09T10:54:36.800Z,79.57
2023-02-09T10:59:42.994Z,81.37
2023-02-09T11:04:48.977Z,74.52
2023-02-09T11:09:54.776Z,72.79
2023-02-09T11:15:02.833Z,70.75
2023-02-09T11:20:24.604Z,77.49
2023-02-09T11:25:34.416Z,72.16
2023-02-09T11:30:55.566Z,73.57
2023-02-09T11:36:17.204Z,75.06
2023-02-09T11:41:47.151Z,73.11
2023-02-09T11:47:00.188Z,68.96
2023-02-09T11:52:06.481Z,68.40
2023-02-09T11:57:22.252Z,68.39
2023-02-09T12:02:46.421Z,65.44
2023-02-09T12:08:14.291Z,66.28
2023-02-09T12:13:31.740Z,62.59
2023-02-09T12:18:38.113Z,60.88
2023-02-09T12:23:43.716Z,54.72
2023-02-09T12:28:50.023Z,59.95
2023-02-09T12:34:29.120Z,62.08
2023-02-09T12:39:35.122Z,60.37
2023-02-09T12:44:40.469Z,58.80
2023-02-09T12:49:46.549Z,55.22
2023-02-09T12:54:52.672Z,59.02
2023-02-09T13:00:35.500Z,60.88
2023-02-09T13:05:46.176Z,58.92
2023-02-09T13:10:57.886Z,56.99
2023-02-09T13:16:24.598Z,54.31
2023-02-09T13:21:40.641Z,54.50
2023-02-09T13:26:52.526Z,53.55
2023-02-09T13:32:05.169Z,54.17
2023-02-09T13:37:23.237Z,55.01
2023-02-09T13:42:28.900Z,54.27
2023-02-09T13:47:33.212Z,53.56
2023-02-09T13:52:40.675Z,53.88
2023-02-09T13:57:47.608Z,54.86
2023-02-09T14:02:55.711Z,53.37
2023-02-09T14:08:03.458Z,51.51
2023-02-09T14:13:18.487Z,53.23
2023-02-09T14:18:29.765Z,52.06
2023-02-09T14:23:35.724Z,53.47
2023-02-09T14:28:41.047Z,51.54
2023-02-09T14:33:49.366Z,49.53
2023-02-09T14:39:11.418Z,50.11
2023-02-09T14:44:21.724Z,49.60
2023-02-09T14:49:26.849Z,50.80
2023-02-09T14:54:34.537Z,53.15
2023-02-09T14:59:38.854Z,50.88
2023-02-09T15:04:43.498Z,52.74
2023-02-09T15:09:50.601Z,52.43
2023-02-09T15:14:56.711Z,52.73
2023-02-09T15:20:01.211Z,53.13
2023-02-09T15:25:08.398Z,55.22
2023-02-09T15:30:16.097Z,62.06
2023-02-09T15:35:22.953Z,64.47
2023-02-09T15:40:50.484Z,67.44
2023-02-09T15:46:12.149Z,67.19
2023-02-09T15:51:18.161Z,67.18
2023-02-09T15:56:24.352Z,66.92
2023-02-09T16:01:28.871Z,68.68
2023-02-09T16:06:35.727Z,68.52
2023-02-09T16:11:42.271Z,69.49
2023-02-09T16:16:46.661Z,70.04
2023-02-09T16:21:54.386Z,70.99
2023-02-09T16:27:01.949Z,70.63
2023-02-09T16:32:08.059Z,69.17
2023-02-09T16:37:16.379Z,68.10
2023-02-09T16:42:22.267Z,69.14
2023-02-09T16:47:28.343Z,68.08
2023-02-09T16:52:33.015Z,69.72
2023-02-09T16:57:38.811Z,69.04
2023-02-09T17:02:44.345Z,71.91
2023-02-09T17:07:54.836Z,74.69
2023-02-09T17:13:04.745Z,74.05
2023-02-09T17:18:13.248Z,72.12
2023-02-09T17:23:19.260Z,74.38
2023-02-09T17:28:25.509Z,75.71
2023-02-09T17:33:33.266Z,76.18
2023-02-09T17:38:41.004Z,76.67
2023-02-09T17:43:47.697Z,79.09
2023-02-09T17:48:52.175Z,80.19
2023-02-09T17:53:57.735Z,77.98
2023-02-09T17:59:13.468Z,81.15
2023-02-09T18:04:20.520Z,84.57
2023-02-09T18:09:25.039Z,84.83
2023-02-09T18:14:32.688Z,86.79
2023-02-09T18:19:37.255Z,89.31
2023-02-09T18:24:42.057Z,90.57
2023-02-09T18:29:47.815Z,91.52
2023-02-09T18:34:52.538Z,88.11
2023-02-09T18:39:56.908Z,88.86
2023-02-09T18:45:02.964Z,90.97
2023-02-09T18:50:07.959Z,88.04
2023-02-09T18:55:12.363Z,89.03
2023-02-09T19:00:20.473Z,91.21
2023-02-09T19:05:26.234Z,91.57
2023-02-09T19:10:33.102Z,91.31
2023-02-09T19:15:40.435Z,92.15
2023-02-09T19:20:44.973Z,89.11
2023-02-09T19:25:49.377Z,89.46
2023-02-09T19:30:55.398Z,90.43
2023-02-09T19:35:59.821Z,91.38
2023-02-09T19:41:10.443Z,93.92
2023-02-09T19:46:16.968Z,90.45
2023-02-09T19:51:21.459Z,88.01
2023-02-09T19:56:25.791Z,87.71
2023-02-09T20:01:32.400Z,87.45
2023-02-09T20:06:36.899Z,85.42
2023-02-09T20:11:41.343Z,89.26
2023-02-09T20:16:47.058Z,89.61
2023-02-09T20:21:51.085Z,90.22
2023-02-09T20:26:55.435Z,89.68
2023-02-09T20:32:02.060Z,90.39
2023-02-09T20:37:07.258Z,88.58
2023-02-09T20:42:28.873Z,92.17
2023-02-09T20:47:35.020Z,88.06
2023-02-09T20:52:39.616Z,86.63
2023-02-09T20:57:44.047Z,91.34
2023-02-09T21:02:49.922Z,90.83
2023-02-09T21:07:55.560Z,89.37
2023-02-09T21:13:00.153Z,89.34
2023-02-09T21:18:06.800Z,90.13
2023-02-09T21:23:11.341Z,91.32
2023-02-09T21:28:15.913Z,89.54
2023-02-09T21:33:21.788Z,92.42
2023-02-09T21:38:26.101Z,89.57
2023-02-09T21:43:30.400Z,88.52
2023-02-09T21:48:54.707Z,89.13
2023-02-09T21:53:59.203Z,86.35
2023-02-09T21:59:03.431Z,85.41
2023-02-09T22:04:09.457Z,88.78
2023-02-09T22:09:13.783Z,88.97
2023-02-09T22:14:18.062Z,91.98
2023-02-09T22:19:24.269Z,90.19
2023-02-09T22:24:30.052Z,91.96
2023-02-09T22:29:34.617Z,90.25
2023-02-09T22:34:40.496Z,89.79
2023-02-09T22:39:46.613Z,87.55
2023-02-09T22:44:50.903Z,89.24
2023-02-09T22:49:56.720Z,90.07
2023-02-09T22:55:00.673Z,89.35
2023-02-09T23:00:07.707Z,91.67
2023-02-09T23:05:13.625Z,91.58
2023-02-09T23:10:18.305Z,92.41
2023-02-09T23:15:22.536Z,93.67
2023-02-09T23:20:28.431Z,92.82
2023-02-09T23:25:32.711Z,94.47
2023-02-09T23:30:36.955Z,93.85
2023-02-09T23:35:43.271Z,93.86
2023-02-09T23:40:47.588Z,93.42
2023-02-09T23:45:52.095Z,93.02
2023-02-09T23:51:01.090Z,92.55
2023-02-09T23:56:05.978Z,94.48
